sensor_id;sensor_type;location;lat;lon;timestamp;pressure;altitude;pressure_sealevel;temperature;humidity
43683;BME280;29285;52.128;21.060;2023-03-16T00:03:16;100510.03;;;2.84;89.52
43683;BME280;29285;52.128;21.060;2023-03-16T00:08:20;100512.50;;;2.77;89.54
43683;BME280;29285;52.128;21.060;2023-03-16T00:13:22;100510.46;;;2.70;89.78
43683;BME280;29285;52.128;21.060;2023-03-16T00:18:24;100513.10;;;2.63;89.47
43683;BME280;29285;52.128;21.060;2023-03-16T00:23:28;100523.97;;;2.60;89.90
43683;BME280;29285;52.128;21.060;2023-03-16T00:28:30;100529.78;;;2.58;90.08
43683;BME280;29285;52.128;21.060;2023-03-16T00:33:34;100532.70;;;2.58;90.25
43683;BME280;29285;52.128;21.060;2023-03-16T00:38:39;100537.10;;;2.56;90.35
43683;BME280;29285;52.128;21.060;2023-03-16T00:43:41;100542.52;;;2.44;90.19
43683;BME280;29285;52.128;21.060;2023-03-16T00:48:44;100540.98;;;2.37;90.37
43683;BME280;29285;52.128;21.060;2023-03-16T00:53:46;100549.03;;;2.28;90.28
43683;BME280;29285;52.128;21.060;2023-03-16T00:58:47;100555.16;;;2.18;90.28
43683;BME280;29285;52.128;21.060;2023-03-16T01:03:47;100556.10;;;2.15;90.57
43683;BME280;29285;52.128;21.060;2023-03-16T01:08:48;100554.02;;;2.13;90.52
43683;BME280;29285;52.128;21.060;2023-03-16T01:13:49;100561.15;;;2.10;91.05
43683;BME280;29285;52.128;21.060;2023-03-16T01:18:54;100558.31;;;2.06;91.10
43683;BME280;29285;52.128;21.060;2023-03-16T01:23:56;100564.52;;;2.01;91.20
43683;BME280;29285;52.128;21.060;2023-03-16T01:28:58;100562.04;;;1.97;91.25
43683;BME280;29285;52.128;21.060;2023-03-16T01:33:59;100561.02;;;1.97;91.57
43683;BME280;29285;52.128;21.060;2023-03-16T01:39:03;100563.00;;;1.93;91.77
43683;BME280;29285;52.128;21.060;2023-03-16T01:44:08;100564.55;;;1.95;92.08
43683;BME280;29285;52.128;21.060;2023-03-16T01:54:22;100571.75;;;1.94;92.48
43683;BME280;29285;52.128;21.060;2023-03-16T01:59:36;100577.10;;;1.82;92.40
43683;BME280;29285;52.128;21.060;2023-03-16T02:09:39;100578.68;;;1.62;92.37
43683;BME280;29285;52.128;21.060;2023-03-16T02:14:46;100580.95;;;1.57;92.38
43683;BME280;29285;52.128;21.060;2023-03-16T02:24:52;100580.52;;;1.53;92.64
43683;BME280;29285;52.128;21.060;2023-03-16T02:34:57;100594.90;;;1.53;93.25
43683;BME280;29285;52.128;21.060;2023-03-16T02:39:59;100598.88;;;1.56;93.38
43683;BME280;29285;52.128;21.060;2023-03-16T02:45:01;100598.76;;;1.51;93.45
43683;BME280;29285;52.128;21.060;2023-03-16T02:50:02;100599.28;;;1.51;93.45
43683;BME280;29285;52.128;21.060;2023-03-16T02:55:06;100609.77;;;1.54;93.62
43683;BME280;29285;52.128;21.060;2023-03-16T03:00:07;100609.58;;;1.53;93.86
43683;BME280;29285;52.128;21.060;2023-03-16T03:05:12;100612.10;;;1.58;94.10
43683;BME280;29285;52.128;21.060;2023-03-16T03:10:13;100619.68;;;1.60;94.32
43683;BME280;29285;52.128;21.060;2023-03-16T03:15:15;100627.08;;;1.62;94.57
43683;BME280;29285;52.128;21.060;2023-03-16T03:20:16;100632.22;;;1.62;94.39
43683;BME280;29285;52.128;21.060;2023-03-16T03:25:18;100634.54;;;1.65;94.79
43683;BME280;29285;52.128;21.060;2023-03-16T03:30:20;100636.62;;;1.67;94.73
43683;BME280;29285;52.128;21.060;2023-03-16T03:35:21;100645.23;;;1.63;95.16
43683;BME280;29285;52.128;21.060;2023-03-16T03:40:23;100647.45;;;1.50;94.89
43683;BME280;29285;52.128;21.060;2023-03-16T03:45:24;100656.05;;;1.43;94.70
43683;BME280;29285;52.128;21.060;2023-03-16T03:50:25;100665.88;;;1.41;94.82
43683;BME280;29285;52.128;21.060;2023-03-16T03:55:26;100673.26;;;1.35;94.78
43683;BME280;29285;52.128;21.060;2023-03-16T04:00:27;100673.36;;;1.32;94.78
43683;BME280;29285;52.128;21.060;2023-03-16T04:05:28;100675.90;;;1.32;95.15
43683;BME280;29285;52.128;21.060;2023-03-16T04:10:29;100677.64;;;1.26;95.09
43683;BME280;29285;52.128;21.060;2023-03-16T04:15:30;100676.05;;;1.19;95.12
43683;BME280;29285;52.128;21.060;2023-03-16T04:20:32;100682.16;;;1.24;95.25
43683;BME280;29285;52.128;21.060;2023-03-16T04:25:33;100686.05;;;1.22;95.70
43683;BME280;29285;52.128;21.060;2023-03-16T04:30:38;100691.48;;;1.14;95.55
43683;BME280;29285;52.128;21.060;2023-03-16T04:35:38;100696.13;;;1.09;95.60
43683;BME280;29285;52.128;21.060;2023-03-16T04:40:39;100703.02;;;1.05;95.58
43683;BME280;29285;52.128;21.060;2023-03-16T04:45:40;100709.85;;;1.05;95.78
43683;BME280;29285;52.128;21.060;2023-03-16T04:50:41;100714.47;;;1.05;96.02
43683;BME280;29285;52.128;21.060;2023-03-16T04:55:43;100717.09;;;1.07;96.17
43683;BME280;29285;52.128;21.060;2023-03-16T05:00:44;100716.89;;;1.12;96.59
43683;BME280;29285;52.128;21.060;2023-03-16T05:05:45;100725.97;;;1.19;96.58
43683;BME280;29285;52.128;21.060;2023-03-16T05:10:47;100730.86;;;1.29;96.94
43683;BME280;29285;52.128;21.060;2023-03-16T05:15:48;100730.48;;;1.27;97.17
43683;BME280;29285;52.128;21.060;2023-03-16T05:20:50;100732.52;;;1.33;97.23
43683;BME280;29285;52.128;21.060;2023-03-16T05:25:51;100735.89;;;1.37;97.56
43683;BME280;29285;52.128;21.060;2023-03-16T05:30:52;100733.48;;;1.43;97.66
43683;BME280;29285;52.128;21.060;2023-03-16T05:35:52;100736.61;;;1.57;98.06
43683;BME280;29285;52.128;21.060;2023-03-16T05:40:53;100742.61;;;1.52;97.57
43683;BME280;29285;52.128;21.060;2023-03-16T05:45:54;100744.73;;;1.48;97.59
43683;BME280;29285;52.128;21.060;2023-03-16T05:50:55;100748.92;;;1.45;97.66
43683;BME280;29285;52.128;21.060;2023-03-16T05:55:56;100751.48;;;1.45;97.77
43683;BME280;29285;52.128;21.060;2023-03-16T06:00:58;100747.96;;;1.47;97.80
43683;BME280;29285;52.128;21.060;2023-03-16T06:06:00;100754.13;;;1.54;97.83
43683;BME280;29285;52.128;21.060;2023-03-16T06:11:01;100759.30;;;1.62;98.07
43683;BME280;29285;52.128;21.060;2023-03-16T06:16:03;100763.45;;;1.69;98.27
43683;BME280;29285;52.128;21.060;2023-03-16T06:21:06;100758.92;;;1.86;98.63
43683;BME280;29285;52.128;21.060;2023-03-16T06:26:07;100762.61;;;2.02;99.17
43683;BME280;29285;52.128;21.060;2023-03-16T06:31:07;100772.73;;;2.18;99.46
43683;BME280;29285;52.128;21.060;2023-03-16T06:36:09;100767.38;;;2.30;99.58
43683;BME280;29285;52.128;21.060;2023-03-16T06:41:10;100770.58;;;2.41;99.78
43683;BME280;29285;52.128;21.060;2023-03-16T06:46:10;100771.38;;;2.53;99.86
43683;BME280;29285;52.128;21.060;2023-03-16T06:51:11;100780.18;;;2.70;99.97
43683;BME280;29285;52.128;21.060;2023-03-16T06:56:12;100787.98;;;2.82;100.00
43683;BME280;29285;52.128;21.060;2023-03-16T07:01:13;100787.64;;;2.90;100.00
43683;BME280;29285;52.128;21.060;2023-03-16T07:06:14;100787.52;;;3.00;100.00
43683;BME280;29285;52.128;21.060;2023-03-16T07:11:15;100792.77;;;3.12;100.00
43683;BME280;29285;52.128;21.060;2023-03-16T07:16:16;100803.15;;;3.24;100.00
43683;BME280;29285;52.128;21.060;2023-03-16T07:21:17;100805.95;;;3.35;100.00
43683;BME280;29285;52.128;21.060;2023-03-16T07:26:27;100804.71;;;3.42;100.00
43683;BME280;29285;52.128;21.060;2023-03-16T07:31:30;100809.79;;;3.46;100.00
43683;BME280;29285;52.128;21.060;2023-03-16T07:36:32;100810.46;;;3.55;100.00
43683;BME280;29285;52.128;21.060;2023-03-16T07:41:32;100815.90;;;3.70;100.00
43683;BME280;29285;52.128;21.060;2023-03-16T07:46:33;100815.27;;;3.81;100.00
43683;BME280;29285;52.128;21.060;2023-03-16T07:51:34;100810.73;;;3.95;100.00
43683;BME280;29285;52.128;21.060;2023-03-16T07:56:35;100818.60;;;4.12;100.00
43683;BME280;29285;52.128;21.060;2023-03-16T08:01:36;100817.84;;;4.18;100.00
43683;BME280;29285;52.128;21.060;2023-03-16T08:06:37;100819.49;;;4.34;100.00
43683;BME280;29285;52.128;21.060;2023-03-16T08:11:38;100817.66;;;4.37;100.00
43683;BME280;29285;52.128;21.060;2023-03-16T08:16:41;100821.73;;;4.25;100.00
43683;BME280;29285;52.128;21.060;2023-03-16T08:21:42;100826.08;;;4.37;100.00
43683;BME280;29285;52.128;21.060;2023-03-16T08:26:43;100825.56;;;4.47;100.00
43683;BME280;29285;52.128;21.060;2023-03-16T08:31:44;100829.77;;;4.63;100.00
43683;BME280;29285;52.128;21.060;2023-03-16T08:36:46;100835.13;;;4.65;100.00
43683;BME280;29285;52.128;21.060;2023-03-16T08:41:47;100833.63;;;4.68;100.00
43683;BME280;29285;52.128;21.060;2023-03-16T08:46:48;100835.13;;;4.76;100.00
43683;BME280;29285;52.128;21.060;2023-03-16T08:51:51;100844.45;;;4.90;100.00
43683;BME280;29285;52.128;21.060;2023-03-16T08:56:54;100846.34;;;4.89;100.00
43683;BME280;29285;52.128;21.060;2023-03-16T09:01:55;100845.92;;;4.96;100.00
43683;BME280;29285;52.128;21.060;2023-03-16T09:06:56;100852.35;;;5.00;100.00
43683;BME280;29285;52.128;21.060;2023-03-16T09:11:58;100855.33;;;5.03;100.00
43683;BME280;29285;52.128;21.060;2023-03-16T09:16:59;100852.42;;;5.16;100.00
43683;BME280;29285;52.128;21.060;2023-03-16T09:22:00;100853.77;;;5.27;100.00
43683;BME280;29285;52.128;21.060;2023-03-16T09:27:01;100856.02;;;5.28;100.00
43683;BME280;29285;52.128;21.060;2023-03-16T09:32:02;100864.16;;;5.31;100.00
43683;BME280;29285;52.128;21.060;2023-03-16T09:37:04;100862.68;;;5.36;100.00
43683;BME280;29285;52.128;21.060;2023-03-16T09:47:08;100860.76;;;5.34;99.45
43683;BME280;29285;52.128;21.060;2023-03-16T09:57:34;100860.66;;;5.39;99.19
43683;BME280;29285;52.128;21.060;2023-03-16T10:02:43;100862.50;;;5.25;98.61
43683;BME280;29285;52.128;21.060;2023-03-16T10:07:49;100862.30;;;5.22;98.17
43683;BME280;29285;52.128;21.060;2023-03-16T10:12:52;100862.83;;;5.22;97.90
43683;BME280;29285;52.128;21.060;2023-03-16T10:23:19;100858.55;;;5.63;98.07
43683;BME280;29285;52.128;21.060;2023-03-16T10:28:23;100864.00;;;5.86;97.84
43683;BME280;29285;52.128;21.060;2023-03-16T10:39:24;100867.21;;;6.24;97.30
43683;BME280;29285;52.128;21.060;2023-03-16T10:44:38;100867.83;;;6.34;96.46
43683;BME280;29285;52.128;21.060;2023-03-16T10:49:40;100871.14;;;6.55;96.15
43683;BME280;29285;52.128;21.060;2023-03-16T10:54:52;100868.39;;;6.80;95.95
43683;BME280;29285;52.128;21.060;2023-03-16T10:59:57;100873.08;;;7.06;95.63
43683;BME280;29285;52.128;21.060;2023-03-16T11:05:09;100865.66;;;7.33;95.18
43683;BME280;29285;52.128;21.060;2023-03-16T11:10:11;100862.56;;;7.68;95.13
43683;BME280;29285;52.128;21.060;2023-03-16T11:15:13;100857.28;;;7.88;94.42
43683;BME280;29285;52.128;21.060;2023-03-16T11:20:25;100860.92;;;7.91;93.14
43683;BME280;29285;52.128;21.060;2023-03-16T11:25:38;100855.81;;;8.15;92.53
43683;BME280;29285;52.128;21.060;2023-03-16T11:40:56;100870.77;;;7.21;88.45
43683;BME280;29285;52.128;21.060;2023-03-16T11:51:15;100859.16;;;6.67;87.00
43683;BME280;29285;52.128;21.060;2023-03-16T11:56:33;100860.83;;;6.60;86.80
43683;BME280;29285;52.128;21.060;2023-03-16T12:06:56;100863.05;;;6.57;86.71
43683;BME280;29285;52.128;21.060;2023-03-16T12:51:04;100877.40;;;6.45;85.63
43683;BME280;29285;52.128;21.060;2023-03-16T12:56:06;100878.80;;;6.47;85.67
43683;BME280;29285;52.128;21.060;2023-03-16T13:01:09;100884.59;;;6.40;85.34
43683;BME280;29285;52.128;21.060;2023-03-16T13:06:18;100889.48;;;6.28;84.94
43683;BME280;29285;52.128;21.060;2023-03-16T13:11:20;100893.71;;;6.20;84.77
43683;BME280;29285;52.128;21.060;2023-03-16T13:16:22;100891.56;;;6.15;84.29
43683;BME280;29285;52.128;21.060;2023-03-16T13:26:38;100888.61;;;6.29;84.60
43683;BME280;29285;52.128;21.060;2023-03-16T13:31:40;100887.99;;;6.34;84.47
43683;BME280;29285;52.128;21.060;2023-03-16T13:36:42;100889.23;;;6.38;84.44
43683;BME280;29285;52.128;21.060;2023-03-16T13:41:58;100893.17;;;6.35;84.02
43683;BME280;29285;52.128;21.060;2023-03-16T13:47:03;100898.86;;;6.36;83.94
43683;BME280;29285;52.128;21.060;2023-03-16T13:52:04;100900.09;;;6.38;83.69
43683;BME280;29285;52.128;21.060;2023-03-16T13:57:12;100904.36;;;6.34;83.44
43683;BME280;29285;52.128;21.060;2023-03-16T14:02:17;100895.61;;;6.37;83.20
43683;BME280;29285;52.128;21.060;2023-03-16T14:07:19;100891.98;;;6.56;83.37
43683;BME280;29285;52.128;21.060;2023-03-16T14:12:20;100887.80;;;7.16;84.02
43683;BME280;29285;52.128;21.060;2023-03-16T14:17:21;100888.56;;;7.96;85.08
43683;BME280;29285;52.128;21.060;2023-03-16T14:22:33;100888.21;;;8.49;85.59
43683;BME280;29285;52.128;21.060;2023-03-16T14:32:40;100891.80;;;7.80;82.32
43683;BME280;29285;52.128;21.060;2023-03-16T14:37:42;100893.73;;;7.53;81.25
43683;BME280;29285;52.128;21.060;2023-03-16T14:42:43;100900.20;;;7.37;80.59
43683;BME280;29285;52.128;21.060;2023-03-16T14:47:44;100901.10;;;7.15;79.99
43683;BME280;29285;52.128;21.060;2023-03-16T14:52:46;100905.41;;;7.16;79.66
43683;BME280;29285;52.128;21.060;2023-03-16T14:57:47;100906.30;;;8.26;80.75
43683;BME280;29285;52.128;21.060;2023-03-16T15:02:55;100909.13;;;7.95;79.81
43683;BME280;29285;52.128;21.060;2023-03-16T15:07:57;100909.54;;;7.68;79.03
43683;BME280;29285;52.128;21.060;2023-03-16T15:12:58;100915.43;;;7.43;78.53
43683;BME280;29285;52.128;21.060;2023-03-16T15:18:24;100921.14;;;7.19;78.05
43683;BME280;29285;52.128;21.060;2023-03-16T15:23:25;100922.96;;;7.07;77.83
43683;BME280;29285;52.128;21.060;2023-03-16T15:28:26;100923.70;;;6.92;77.76
43683;BME280;29285;52.128;21.060;2023-03-16T15:33:27;100933.44;;;6.81;77.55
43683;BME280;29285;52.128;21.060;2023-03-16T15:38:29;100932.63;;;6.68;77.47
43683;BME280;29285;52.128;21.060;2023-03-16T15:43:31;100932.16;;;6.56;77.39
43683;BME280;29285;52.128;21.060;2023-03-16T15:48:32;100935.16;;;6.46;77.32
43683;BME280;29285;52.128;21.060;2023-03-16T15:53:44;100936.11;;;6.39;77.30
43683;BME280;29285;52.128;21.060;2023-03-16T15:58:46;100939.42;;;6.41;77.51
43683;BME280;29285;52.128;21.060;2023-03-16T16:03:49;100938.58;;;6.44;77.59
43683;BME280;29285;52.128;21.060;2023-03-16T16:08:50;100936.73;;;6.47;77.55
43683;BME280;29285;52.128;21.060;2023-03-16T16:13:53;100947.74;;;6.46;77.50
43683;BME280;29285;52.128;21.060;2023-03-16T16:18:54;100952.83;;;6.38;77.26
43683;BME280;29285;52.128;21.060;2023-03-16T16:23:56;100955.98;;;6.27;76.83
43683;BME280;29285;52.128;21.060;2023-03-16T16:28:57;100962.88;;;6.13;76.53
43683;BME280;29285;52.128;21.060;2023-03-16T16:33:59;100967.82;;;5.98;76.06
43683;BME280;29285;52.128;21.060;2023-03-16T16:39:00;100976.50;;;5.89;75.85
43683;BME280;29285;52.128;21.060;2023-03-16T16:44:01;100978.15;;;5.83;75.63
43683;BME280;29285;52.128;21.060;2023-03-16T16:49:17;100982.38;;;5.79;75.63
43683;BME280;29285;52.128;21.060;2023-03-16T16:54:20;100988.46;;;5.71;75.52
43683;BME280;29285;52.128;21.060;2023-03-16T16:59:22;100995.52;;;5.71;75.60
43683;BME280;29285;52.128;21.060;2023-03-16T17:04:25;100995.17;;;5.69;75.70
43683;BME280;29285;52.128;21.060;2023-03-16T17:09:27;101000.07;;;5.63;75.63
43683;BME280;29285;52.128;21.060;2023-03-16T17:14:28;101008.89;;;5.55;75.58
43683;BME280;29285;52.128;21.060;2023-03-16T17:19:30;101007.20;;;5.46;75.33
43683;BME280;29285;52.128;21.060;2023-03-16T17:24:32;101011.27;;;5.42;75.49
43683;BME280;29285;52.128;21.060;2023-03-16T17:29:33;101012.70;;;5.35;75.39
43683;BME280;29285;52.128;21.060;2023-03-16T17:34:36;101015.54;;;5.29;75.48
43683;BME280;29285;52.128;21.060;2023-03-16T17:39:37;101025.50;;;5.28;75.59
43683;BME280;29285;52.128;21.060;2023-03-16T17:44:40;101029.07;;;5.25;75.70
43683;BME280;29285;52.128;21.060;2023-03-16T17:49:42;101037.48;;;5.24;75.83
43683;BME280;29285;52.128;21.060;2023-03-16T17:54:47;101042.27;;;5.23;75.76
43683;BME280;29285;52.128;21.060;2023-03-16T17:59:48;101045.77;;;5.26;76.25
43683;BME280;29285;52.128;21.060;2023-03-16T18:04:49;101046.86;;;5.29;76.42
43683;BME280;29285;52.128;21.060;2023-03-16T18:09:51;101053.61;;;5.32;76.72
43683;BME280;29285;52.128;21.060;2023-03-16T18:14:52;101051.67;;;5.39;76.96
43683;BME280;29285;52.128;21.060;2023-03-16T18:19:58;101058.88;;;5.28;76.82
43683;BME280;29285;52.128;21.060;2023-03-16T18:24:59;101060.67;;;5.31;76.84
43683;BME280;29285;52.128;21.060;2023-03-16T18:30:01;101068.65;;;5.26;76.75
43683;BME280;29285;52.128;21.060;2023-03-16T18:35:02;101071.27;;;5.18;76.78
43683;BME280;29285;52.128;21.060;2023-03-16T18:40:03;101079.27;;;5.13;76.65
43683;BME280;29285;52.128;21.060;2023-03-16T18:45:07;101084.31;;;5.07;76.62
43683;BME280;29285;52.128;21.060;2023-03-16T18:50:14;101083.59;;;4.96;76.74
43683;BME280;29285;52.128;21.060;2023-03-16T18:55:19;101086.04;;;4.89;76.65
43683;BME280;29285;52.128;21.060;2023-03-16T19:00:21;101088.21;;;4.86;76.85
43683;BME280;29285;52.128;21.060;2023-03-16T19:05:41;101096.75;;;4.83;77.06
43683;BME280;29285;52.128;21.060;2023-03-16T19:11:03;101096.95;;;4.75;77.30
43683;BME280;29285;52.128;21.060;2023-03-16T19:16:03;101099.05;;;4.69;77.11
43683;BME280;29285;52.128;21.060;2023-03-16T19:21:12;101098.15;;;4.67;77.35
43683;BME280;29285;52.128;21.060;2023-03-16T19:26:15;101104.29;;;4.63;77.41
43683;BME280;29285;52.128;21.060;2023-03-16T19:31:21;101111.73;;;4.57;77.56
43683;BME280;29285;52.128;21.060;2023-03-16T19:36:24;101114.55;;;4.53;77.80
43683;BME280;29285;52.128;21.060;2023-03-16T19:41:26;101121.71;;;4.50;78.03
43683;BME280;29285;52.128;21.060;2023-03-16T19:46:28;101126.65;;;4.49;78.09
43683;BME280;29285;52.128;21.060;2023-03-16T19:51:29;101128.27;;;4.51;78.28
43683;BME280;29285;52.128;21.060;2023-03-16T19:56:31;101133.95;;;4.53;78.71
43683;BME280;29285;52.128;21.060;2023-03-16T20:01:33;101132.27;;;4.55;79.05
43683;BME280;29285;52.128;21.060;2023-03-16T20:06:34;101135.14;;;4.60;79.27
43683;BME280;29285;52.128;21.060;2023-03-16T20:11:35;101138.91;;;4.67;79.75
43683;BME280;29285;52.128;21.060;2023-03-16T20:16:36;101137.61;;;4.71;80.04
43683;BME280;29285;52.128;21.060;2023-03-16T20:21:37;101140.08;;;4.74;80.14
43683;BME280;29285;52.128;21.060;2023-03-16T20:26:38;101142.36;;;4.77;80.20
43683;BME280;29285;52.128;21.060;2023-03-16T20:31:39;101148.28;;;4.80;80.56
43683;BME280;29285;52.128;21.060;2023-03-16T20:36:41;101141.45;;;4.82;80.68
43683;BME280;29285;52.128;21.060;2023-03-16T20:41:42;101139.34;;;4.80;80.69
43683;BME280;29285;52.128;21.060;2023-03-16T20:46:43;101140.86;;;4.79;80.90
43683;BME280;29285;52.128;21.060;2023-03-16T20:51:44;101142.23;;;4.78;81.05
43683;BME280;29285;52.128;21.060;2023-03-16T20:56:45;101146.16;;;4.77;81.29
43683;BME280;29285;52.128;21.060;2023-03-16T21:01:47;101149.16;;;4.73;81.38
43683;BME280;29285;52.128;21.060;2023-03-16T21:06:49;101147.54;;;4.70;81.38
43683;BME280;29285;52.128;21.060;2023-03-16T21:11:50;101148.73;;;4.68;81.34
43683;BME280;29285;52.128;21.060;2023-03-16T21:16:52;101148.58;;;4.69;81.61
43683;BME280;29285;52.128;21.060;2023-03-16T21:21:53;101153.89;;;4.69;81.87
43683;BME280;29285;52.128;21.060;2023-03-16T21:26:54;101153.18;;;4.67;82.23
43683;BME280;29285;52.128;21.060;2023-03-16T21:31:55;101152.10;;;4.65;82.01
43683;BME280;29285;52.128;21.060;2023-03-16T21:36:56;101153.38;;;4.60;82.02
43683;BME280;29285;52.128;21.060;2023-03-16T21:41:58;101153.27;;;4.56;82.22
43683;BME280;29285;52.128;21.060;2023-03-16T21:47:00;101150.45;;;4.53;82.17
43683;BME280;29285;52.128;21.060;2023-03-16T21:52:01;101158.00;;;4.44;82.03
43683;BME280;29285;52.128;21.060;2023-03-16T21:57:07;101160.74;;;4.28;82.04
43683;BME280;29285;52.128;21.060;2023-03-16T22:02:42;101157.81;;;4.14;81.86
43683;BME280;29285;52.128;21.060;2023-03-16T22:07:36;101154.22;;;4.06;81.83
43683;BME280;29285;52.128;21.060;2023-03-16T22:12:37;101157.51;;;4.01;81.89
43683;BME280;29285;52.128;21.060;2023-03-16T22:17:38;101158.79;;;3.96;81.93
43683;BME280;29285;52.128;21.060;2023-03-16T22:22:39;101164.46;;;3.89;82.31
43683;BME280;29285;52.128;21.060;2023-03-16T22:27:40;101169.94;;;3.82;82.25
43683;BME280;29285;52.128;21.060;2023-03-16T22:32:41;101174.45;;;3.70;82.27
43683;BME280;29285;52.128;21.060;2023-03-16T22:37:42;101171.97;;;3.60;82.23
43683;BME280;29285;52.128;21.060;2023-03-16T22:42:43;101166.31;;;3.54;82.16
43683;BME280;29285;52.128;21.060;2023-03-16T22:47:44;101168.05;;;3.48;82.29
43683;BME280;29285;52.128;21.060;2023-03-16T22:52:48;101171.33;;;3.42;82.27
43683;BME280;29285;52.128;21.060;2023-03-16T22:57:50;101171.34;;;3.36;82.51
43683;BME280;29285;52.128;21.060;2023-03-16T23:02:53;101178.15;;;3.34;82.51
43683;BME280;29285;52.128;21.060;2023-03-16T23:07:54;101184.08;;;3.31;82.77
43683;BME280;29285;52.128;21.060;2023-03-16T23:12:57;101184.63;;;3.26;82.79
43683;BME280;29285;52.128;21.060;2023-03-16T23:17:59;101191.45;;;3.26;83.14
43683;BME280;29285;52.128;21.060;2023-03-16T23:22:59;101195.95;;;3.27;83.45
43683;BME280;29285;52.128;21.060;2023-03-16T23:28:01;101191.41;;;3.24;83.59
43683;BME280;29285;52.128;21.060;2023-03-16T23:33:02;101192.00;;;3.20;83.31
43683;BME280;29285;52.128;21.060;2023-03-16T23:38:03;101194.15;;;3.11;83.65
43683;BME280;29285;52.128;21.060;2023-03-16T23:43:04;101198.86;;;3.01;83.66
43683;BME280;29285;52.128;21.060;2023-03-16T23:48:09;101198.59;;;2.92;83.40
43683;BME280;29285;52.128;21.060;2023-03-16T23:53:15;101203.14;;;2.96;83.73
43683;BME280;29285;52.128;21.060;2023-03-16T23:58:17;101206.59;;;2.96;83.80
